Impacts TAF Board
For situational awareness. Not to be used for flight planning purposes.
IDs:

KSLC - Salt Lake City Intl, UT, US

Issued at 1525 UTC 01 Mar 2021
Updated at 1619 UTC 01 Mar 2021
Potential Impact None Slight Moderate High
Time1554Z 01/17Z 01/18Z 01/19Z 01/20Z 01/21Z 01/22Z 01/23Z 02/00Z 02/01Z 02/02Z 02/03Z 02/04Z 02/05Z>>
Type OBS PRVL PRVL PRVL PRVL PRVL PRVL PRVL PRVL PRVL PRVL PRVL PRVL PRVL
VIS 10 >6 >6 >6 >6 >6 >6 >6 >6 >6 >6 >6 >6 >6
CIG -- -- -- -- -- -- -- -- -- -- -- -- -- --
Cover CLR SKC SKC SKC SKC SKC SKC SKC SKC SKC SKC SKC SKC SKC
FltCat VFR VFR VFR VFR VFR VFR VFR VFR VFR VFR VFR VFR VFR VFR
WX -- -- -- -- -- -- -- -- -- -- -- -- -- --
WDir 160 150 150 330 330 330 330 330 330 330 330 150 150 150
WSpd 7 5 5 6 6 6 6 6 6 6 6 5 5 5
WGst -- -- -- -- -- -- -- -- -- -- -- -- -- --
Raw TAF
KSLC 011525Z 0115/0218 15005KT P6SM SKC
  FM011900 33006KT P6SM SKC
  FM020300 15005KT P6SM SKC


Raw METAR
KSLC 011554Z 16007KT 10SM CLR M01/M09 A3040 RMK AO2 SLP314 T10111089
KSLC 011454Z 14006KT 10SM CLR M03/M09 A3039 RMK AO2 SLP312 T10281094 55000
KSLC 011354Z 13006KT 10SM CLR M04/M10 A3039 RMK AO2 SLP312 T10441100

METAR Board
Radar Display
Forecast Discussion
For situational awareness. Not to be used for flight planning purposes.